sensor_id;sensor_type;location;lat;lon;timestamp;pressure;altitude;pressure_sealevel;temperature;humidity
60920;BME280;59039;52.108;19.942;2023-05-20T00:01:19;101721.33;;;13.61;81.72
60920;BME280;59039;52.108;19.942;2023-05-20T00:04:05;101716.45;;;13.61;81.83
60920;BME280;59039;52.108;19.942;2023-05-20T00:06:58;101711.84;;;13.61;82.08
60920;BME280;59039;52.108;19.942;2023-05-20T00:09:32;101707.65;;;13.64;81.94
60920;BME280;59039;52.108;19.942;2023-05-20T00:14:32;101707.88;;;13.63;81.78
60920;BME280;59039;52.108;19.942;2023-05-20T00:16:58;101709.20;;;13.60;81.77
60920;BME280;59039;52.108;19.942;2023-05-20T00:19:54;101707.45;;;13.60;82.13
60920;BME280;59039;52.108;19.942;2023-05-20T00:22:28;101705.38;;;13.56;81.66
60920;BME280;59039;52.108;19.942;2023-05-20T00:24:56;101702.00;;;13.53;81.91
60920;BME280;59039;52.108;19.942;2023-05-20T00:27:52;101696.96;;;13.51;82.09
60920;BME280;59039;52.108;19.942;2023-05-20T00:30:23;101697.31;;;13.49;81.88
60920;BME280;59039;52.108;19.942;2023-05-20T00:36:18;101695.73;;;13.49;82.28
60920;BME280;59039;52.108;19.942;2023-05-20T00:39:12;101695.02;;;13.46;82.40
60920;BME280;59039;52.108;19.942;2023-05-20T00:41:46;101693.15;;;13.47;82.51
60920;BME280;59039;52.108;19.942;2023-05-20T00:44:41;101695.41;;;13.48;82.64
60920;BME280;59039;52.108;19.942;2023-05-20T00:49:50;101696.22;;;13.51;82.70
60920;BME280;59039;52.108;19.942;2023-05-20T00:52:48;101702.15;;;13.52;82.71
60920;BME280;59039;52.108;19.942;2023-05-20T00:55:13;101704.11;;;13.52;82.57
60920;BME280;59039;52.108;19.942;2023-05-20T00:57:38;101702.13;;;13.54;82.75
60920;BME280;59039;52.108;19.942;2023-05-20T01:00:11;101701.46;;;13.55;82.90
60920;BME280;59039;52.108;19.942;2023-05-20T01:03:17;101705.95;;;13.56;82.86
60920;BME280;59039;52.108;19.942;2023-05-20T01:06:23;101711.52;;;13.56;82.69
60920;BME280;59039;52.108;19.942;2023-05-20T01:11:42;101710.38;;;13.51;82.22
60920;BME280;59039;52.108;19.942;2023-05-20T01:14:12;101716.15;;;13.50;82.33
60920;BME280;59039;52.108;19.942;2023-05-20T01:19:53;101712.81;;;13.45;82.26
60920;BME280;59039;52.108;19.942;2023-05-20T01:22:37;101706.60;;;13.43;82.52
60920;BME280;59039;52.108;19.942;2023-05-20T01:25:33;101700.54;;;13.44;82.74
60920;BME280;59039;52.108;19.942;2023-05-20T01:28:05;101700.39;;;13.43;82.76
60920;BME280;59039;52.108;19.942;2023-05-20T01:30:41;101701.25;;;13.44;82.80
60920;BME280;59039;52.108;19.942;2023-05-20T01:33:26;101701.63;;;13.46;83.11
60920;BME280;59039;52.108;19.942;2023-05-20T01:35:55;101700.10;;;13.46;82.92
60920;BME280;59039;52.108;19.942;2023-05-20T01:38:31;101698.61;;;13.47;82.88
60920;BME280;59039;52.108;19.942;2023-05-20T01:40:57;101695.88;;;13.47;82.78
60920;BME280;59039;52.108;19.942;2023-05-20T01:43:43;101696.56;;;13.45;82.84
60920;BME280;59039;52.108;19.942;2023-05-20T01:49:25;101696.06;;;13.45;82.97
60920;BME280;59039;52.108;19.942;2023-05-20T01:52:21;101693.23;;;13.44;83.10
60920;BME280;59039;52.108;19.942;2023-05-20T01:54:54;101690.42;;;13.43;83.09
60920;BME280;59039;52.108;19.942;2023-05-20T01:57:21;101688.06;;;13.43;83.27
60920;BME280;59039;52.108;19.942;2023-05-20T02:00:16;101684.69;;;13.44;83.50
60920;BME280;59039;52.108;19.942;2023-05-20T02:02:43;101684.30;;;13.44;83.25
60920;BME280;59039;52.108;19.942;2023-05-20T02:05:12;101685.78;;;13.44;83.61
60920;BME280;59039;52.108;19.942;2023-05-20T02:07:50;101686.54;;;13.42;83.86
60920;BME280;59039;52.108;19.942;2023-05-20T02:10:47;101683.56;;;13.40;83.87
60920;BME280;59039;52.108;19.942;2023-05-20T02:13:20;101685.17;;;13.39;83.95
60920;BME280;59039;52.108;19.942;2023-05-20T02:15:53;101688.74;;;13.38;84.26
60920;BME280;59039;52.108;19.942;2023-05-20T02:18:18;101693.23;;;13.36;84.21
60920;BME280;59039;52.108;19.942;2023-05-20T02:20:51;101698.30;;;13.34;84.17
60920;BME280;59039;52.108;19.942;2023-05-20T02:23:19;101702.27;;;13.34;84.29
60920;BME280;59039;52.108;19.942;2023-05-20T02:28:47;101698.68;;;13.34;84.27
60920;BME280;59039;52.108;19.942;2023-05-20T02:31:33;101694.16;;;13.34;84.81
60920;BME280;59039;52.108;19.942;2023-05-20T02:34:07;101693.39;;;13.32;84.73
60920;BME280;59039;52.108;19.942;2023-05-20T02:36:32;101691.52;;;13.31;84.65
60920;BME280;59039;52.108;19.942;2023-05-20T02:39:07;101695.95;;;13.30;84.92
60920;BME280;59039;52.108;19.942;2023-05-20T02:41:42;101696.54;;;13.28;85.02
60920;BME280;59039;52.108;19.942;2023-05-20T02:44:15;101693.09;;;13.26;85.02
60920;BME280;59039;52.108;19.942;2023-05-20T02:46:41;101693.33;;;13.25;85.30
60920;BME280;59039;52.108;19.942;2023-05-20T02:49:34;101692.19;;;13.25;85.39
60920;BME280;59039;52.108;19.942;2023-05-20T02:51:59;101694.02;;;13.25;85.30
60920;BME280;59039;52.108;19.942;2023-05-20T02:54:53;101693.20;;;13.22;85.13
60920;BME280;59039;52.108;19.942;2023-05-20T02:57:38;101692.70;;;13.20;85.42
60920;BME280;59039;52.108;19.942;2023-05-20T03:00:09;101696.01;;;13.17;84.96
60920;BME280;59039;52.108;19.942;2023-05-20T03:03:03;101695.69;;;13.17;85.18
60920;BME280;59039;52.108;19.942;2023-05-20T03:05:29;101695.32;;;13.19;85.06
60920;BME280;59039;52.108;19.942;2023-05-20T03:11:00;101691.46;;;13.19;85.10
60920;BME280;59039;52.108;19.942;2023-05-20T03:13:33;101689.95;;;13.18;84.88
60920;BME280;59039;52.108;19.942;2023-05-20T03:19:12;101695.90;;;13.19;85.22
60920;BME280;59039;52.108;19.942;2023-05-20T03:21:48;101696.90;;;13.20;85.12
60920;BME280;59039;52.108;19.942;2023-05-20T03:24:55;101699.95;;;13.20;85.12
60920;BME280;59039;52.108;19.942;2023-05-20T03:28:00;101706.77;;;13.19;85.01
60920;BME280;59039;52.108;19.942;2023-05-20T03:30:57;101707.71;;;13.19;84.92
60920;BME280;59039;52.108;19.942;2023-05-20T03:34:03;101703.96;;;13.18;85.13
60920;BME280;59039;52.108;19.942;2023-05-20T03:36:36;101708.73;;;13.18;85.03
60920;BME280;59039;52.108;19.942;2023-05-20T03:39:14;101707.43;;;13.18;85.18
60920;BME280;59039;52.108;19.942;2023-05-20T03:41:50;101704.50;;;13.18;85.26
60920;BME280;59039;52.108;19.942;2023-05-20T03:44:18;101707.73;;;13.17;85.03
60920;BME280;59039;52.108;19.942;2023-05-20T03:49:49;101715.70;;;13.11;84.99
60920;BME280;59039;52.108;19.942;2023-05-20T03:55:18;101711.62;;;13.13;85.05
60920;BME280;59039;52.108;19.942;2023-05-20T03:57:44;101712.75;;;13.15;85.01
60920;BME280;59039;52.108;19.942;2023-05-20T04:00:26;101720.05;;;13.17;85.13
60920;BME280;59039;52.108;19.942;2023-05-20T04:03:00;101726.00;;;13.18;84.51
60920;BME280;59039;52.108;19.942;2023-05-20T04:05:35;101730.13;;;13.14;84.30
60920;BME280;59039;52.108;19.942;2023-05-20T04:08:19;101727.63;;;13.12;83.96
60920;BME280;59039;52.108;19.942;2023-05-20T04:10:45;101728.52;;;13.12;83.99
60920;BME280;59039;52.108;19.942;2023-05-20T04:13:26;101722.20;;;13.12;84.14
60920;BME280;59039;52.108;19.942;2023-05-20T04:16:04;101723.95;;;13.12;84.08
60920;BME280;59039;52.108;19.942;2023-05-20T04:18:50;101727.55;;;13.13;84.30
60920;BME280;59039;52.108;19.942;2023-05-20T04:21:36;101726.13;;;13.12;83.78
60920;BME280;59039;52.108;19.942;2023-05-20T04:24:01;101731.60;;;13.14;83.74
60920;BME280;59039;52.108;19.942;2023-05-20T04:26:32;101726.40;;;13.15;84.16
60920;BME280;59039;52.108;19.942;2023-05-20T04:29:26;101728.95;;;13.17;84.15
60920;BME280;59039;52.108;19.942;2023-05-20T04:31:53;101727.84;;;13.15;83.40
60920;BME280;59039;52.108;19.942;2023-05-20T04:34:28;101725.80;;;13.16;83.47
60920;BME280;59039;52.108;19.942;2023-05-20T04:36:53;101728.33;;;13.18;83.79
60920;BME280;59039;52.108;19.942;2023-05-20T04:39:18;101721.67;;;13.20;83.85
60920;BME280;59039;52.108;19.942;2023-05-20T04:42:04;101721.73;;;13.19;82.86
60920;BME280;59039;52.108;19.942;2023-05-20T04:53:15;101714.95;;;13.21;82.40
60920;BME280;59039;52.108;19.942;2023-05-20T04:58:29;101714.18;;;13.22;81.75
60920;BME280;59039;52.108;19.942;2023-05-20T05:01:04;101709.06;;;13.22;82.17
60920;BME280;59039;52.108;19.942;2023-05-20T05:03:39;101716.27;;;13.21;80.32
60920;BME280;59039;52.108;19.942;2023-05-20T05:06:28;101713.40;;;13.20;80.43
60920;BME280;59039;52.108;19.942;2023-05-20T05:09:12;101715.55;;;13.21;81.10
60920;BME280;59039;52.108;19.942;2023-05-20T05:11:49;101714.52;;;13.22;80.83
60920;BME280;59039;52.108;19.942;2023-05-20T05:14:17;101712.16;;;13.22;79.33
60920;BME280;59039;52.108;19.942;2023-05-20T05:16:46;101711.16;;;13.21;80.14
60920;BME280;59039;52.108;19.942;2023-05-20T05:19:14;101712.20;;;13.23;80.78
60920;BME280;59039;52.108;19.942;2023-05-20T05:21:39;101715.98;;;13.26;81.77
60920;BME280;59039;52.108;19.942;2023-05-20T05:24:19;101713.53;;;13.27;80.87
60920;BME280;59039;52.108;19.942;2023-05-20T05:26:45;101709.98;;;13.26;80.46
60920;BME280;59039;52.108;19.942;2023-05-20T05:29:16;101718.10;;;13.29;81.71
60920;BME280;59039;52.108;19.942;2023-05-20T05:31:42;101720.31;;;13.32;82.04
60920;BME280;59039;52.108;19.942;2023-05-20T05:34:07;101722.25;;;13.35;81.91
60920;BME280;59039;52.108;19.942;2023-05-20T05:36:41;101721.08;;;13.38;81.18
60920;BME280;59039;52.108;19.942;2023-05-20T05:39:16;101724.86;;;13.43;81.61
60920;BME280;59039;52.108;19.942;2023-05-20T05:42:02;101726.21;;;13.46;80.51
60920;BME280;59039;52.108;19.942;2023-05-20T05:47:28;101727.41;;;13.52;79.95
60920;BME280;59039;52.108;19.942;2023-05-20T05:52:58;101728.18;;;13.62;80.53
60920;BME280;59039;52.108;19.942;2023-05-20T05:55:32;101724.04;;;13.67;80.54
60920;BME280;59039;52.108;19.942;2023-05-20T05:58:00;101724.73;;;13.72;79.89
60920;BME280;59039;52.108;19.942;2023-05-20T06:00:29;101732.66;;;13.76;80.37
60920;BME280;59039;52.108;19.942;2023-05-20T06:02:57;101729.02;;;13.80;80.71
60920;BME280;59039;52.108;19.942;2023-05-20T06:05:28;101726.10;;;13.84;80.10
60920;BME280;59039;52.108;19.942;2023-05-20T06:08:15;101728.04;;;13.89;80.22
60920;BME280;59039;52.108;19.942;2023-05-20T06:10:50;101727.52;;;13.92;79.61
60920;BME280;59039;52.108;19.942;2023-05-20T06:13:16;101726.54;;;13.97;79.62
60920;BME280;59039;52.108;19.942;2023-05-20T06:15:42;101728.52;;;14.01;79.55
60920;BME280;59039;52.108;19.942;2023-05-20T06:18:16;101728.67;;;14.05;79.79
60920;BME280;59039;52.108;19.942;2023-05-20T06:20:41;101729.60;;;14.11;80.46
60920;BME280;59039;52.108;19.942;2023-05-20T06:23:09;101728.95;;;14.15;80.61
60920;BME280;59039;52.108;19.942;2023-05-20T06:25:34;101732.48;;;14.21;80.69
60920;BME280;59039;52.108;19.942;2023-05-20T06:28:05;101734.39;;;14.26;80.11
60920;BME280;59039;52.108;19.942;2023-05-20T06:30:35;101734.95;;;14.29;78.68
60920;BME280;59039;52.108;19.942;2023-05-20T06:33:06;101738.98;;;14.33;78.77
60920;BME280;59039;52.108;19.942;2023-05-20T06:35:47;101741.13;;;14.37;79.45
60920;BME280;59039;52.108;19.942;2023-05-20T06:38:22;101739.67;;;14.41;79.90
60920;BME280;59039;52.108;19.942;2023-05-20T06:40:50;101738.55;;;14.45;79.10
60920;BME280;59039;52.108;19.942;2023-05-20T06:43:18;101735.69;;;14.48;78.78
60920;BME280;59039;52.108;19.942;2023-05-20T06:45:44;101737.52;;;14.52;78.91
60920;BME280;59039;52.108;19.942;2023-05-20T06:48:18;101735.57;;;14.55;79.34
60920;BME280;59039;52.108;19.942;2023-05-20T06:50:53;101733.79;;;14.57;78.05
60920;BME280;59039;52.108;19.942;2023-05-20T06:53:24;101734.30;;;14.59;78.03
60920;BME280;59039;52.108;19.942;2023-05-20T06:55:59;101734.70;;;14.60;76.93
60920;BME280;59039;52.108;19.942;2023-05-20T06:58:24;101730.33;;;14.63;77.73
60920;BME280;59039;52.108;19.942;2023-05-20T07:00:50;101734.61;;;14.67;78.51
60920;BME280;59039;52.108;19.942;2023-05-20T07:03:17;101733.92;;;14.70;78.45
60920;BME280;59039;52.108;19.942;2023-05-20T07:05:43;101725.11;;;14.75;78.14
60920;BME280;59039;52.108;19.942;2023-05-20T07:08:09;101715.98;;;14.80;77.97
60920;BME280;59039;52.108;19.942;2023-05-20T07:10:34;101714.05;;;14.87;78.73
60920;BME280;59039;52.108;19.942;2023-05-20T07:12:59;101706.30;;;14.95;78.08
60920;BME280;59039;52.108;19.942;2023-05-20T07:15:25;101701.75;;;15.04;78.09
60920;BME280;59039;52.108;19.942;2023-05-20T07:17:52;101701.11;;;15.14;78.49
60920;BME280;59039;52.108;19.942;2023-05-20T07:20:18;101702.72;;;15.26;77.41
60920;BME280;59039;52.108;19.942;2023-05-20T07:22:43;101697.89;;;15.39;76.97
60920;BME280;59039;52.108;19.942;2023-05-20T07:25:09;101695.73;;;15.51;77.21
60920;BME280;59039;52.108;19.942;2023-05-20T07:27:52;101698.94;;;15.65;77.32
60920;BME280;59039;52.108;19.942;2023-05-20T07:30:26;101697.60;;;15.76;75.06
60920;BME280;59039;52.108;19.942;2023-05-20T07:32:51;101697.57;;;15.89;74.83
60920;BME280;59039;52.108;19.942;2023-05-20T07:35:17;101696.47;;;16.02;74.61
60920;BME280;59039;52.108;19.942;2023-05-20T07:37:42;101695.52;;;16.14;73.46
60920;BME280;59039;52.108;19.942;2023-05-20T07:40:08;101694.80;;;16.26;72.90
60920;BME280;59039;52.108;19.942;2023-05-20T07:42:33;101694.10;;;16.38;71.19
60920;BME280;59039;52.108;19.942;2023-05-20T07:44:59;101692.54;;;16.53;74.86
60920;BME280;59039;52.108;19.942;2023-05-20T07:47:24;101694.55;;;16.65;73.81
60920;BME280;59039;52.108;19.942;2023-05-20T07:49:49;101689.55;;;16.76;73.59
60920;BME280;59039;52.108;19.942;2023-05-20T07:52:15;101690.90;;;16.89;76.20
60920;BME280;59039;52.108;19.942;2023-05-20T07:54:49;101688.23;;;16.99;75.16
60920;BME280;59039;52.108;19.942;2023-05-20T07:57:23;101686.20;;;17.12;76.02
60920;BME280;59039;52.108;19.942;2023-05-20T07:59:48;101683.48;;;17.24;75.24
60920;BME280;59039;52.108;19.942;2023-05-20T08:02:14;101679.30;;;17.35;73.17
60920;BME280;59039;52.108;19.942;2023-05-20T08:04:39;101672.00;;;17.47;74.83
60920;BME280;59039;52.108;19.942;2023-05-20T08:07:04;101674.34;;;17.57;73.71
60920;BME280;59039;52.108;19.942;2023-05-20T08:09:30;101668.34;;;17.68;72.73
60920;BME280;59039;52.108;19.942;2023-05-20T08:11:55;101669.34;;;17.79;73.96
60920;BME280;59039;52.108;19.942;2023-05-20T08:14:21;101668.58;;;17.86;73.17
60920;BME280;59039;52.108;19.942;2023-05-20T08:16:46;101670.54;;;17.90;71.81
60920;BME280;59039;52.108;19.942;2023-05-20T08:21:47;101669.48;;;17.98;68.63
60920;BME280;59039;52.108;19.942;2023-05-20T08:24:12;101665.96;;;18.01;69.60
60920;BME280;59039;52.108;19.942;2023-05-20T08:26:37;101666.98;;;18.07;71.48
60920;BME280;59039;52.108;19.942;2023-05-20T08:29:06;101666.13;;;18.13;72.69
60920;BME280;59039;52.108;19.942;2023-05-20T08:31:31;101665.45;;;18.19;71.45
60920;BME280;59039;52.108;19.942;2023-05-20T08:33:59;101667.33;;;18.25;72.30
60920;BME280;59039;52.108;19.942;2023-05-20T08:36:27;101663.73;;;18.29;68.64
60920;BME280;59039;52.108;19.942;2023-05-20T08:39:00;101662.09;;;18.34;67.45
60920;BME280;59039;52.108;19.942;2023-05-20T08:41:26;101659.09;;;18.39;68.65
60920;BME280;59039;52.108;19.942;2023-05-20T08:43:52;101661.34;;;18.45;70.85
60920;BME280;59039;52.108;19.942;2023-05-20T08:46:17;101660.77;;;18.52;71.63
60920;BME280;59039;52.108;19.942;2023-05-20T08:48:44;101658.81;;;18.56;69.44
60920;BME280;59039;52.108;19.942;2023-05-20T08:51:10;101651.52;;;18.59;68.11
60920;BME280;59039;52.108;19.942;2023-05-20T08:53:35;101648.71;;;18.62;68.29
60920;BME280;59039;52.108;19.942;2023-05-20T08:56:04;101650.88;;;18.66;67.94
60920;BME280;59039;52.108;19.942;2023-05-20T08:58:37;101652.08;;;18.67;67.09
60920;BME280;59039;52.108;19.942;2023-05-20T09:01:11;101649.01;;;18.68;66.63
60920;BME280;59039;52.108;19.942;2023-05-20T09:03:37;101649.19;;;18.72;70.14
60920;BME280;59039;52.108;19.942;2023-05-20T09:06:06;101648.64;;;18.76;70.57
60920;BME280;59039;52.108;19.942;2023-05-20T09:08:32;101645.18;;;18.75;71.23
60920;BME280;59039;52.108;19.942;2023-05-20T09:11:00;101645.09;;;18.79;70.58
60920;BME280;59039;52.108;19.942;2023-05-20T09:13:26;101644.66;;;18.83;68.89
60920;BME280;59039;52.108;19.942;2023-05-20T09:16:22;101641.96;;;18.86;68.11
60920;BME280;59039;52.108;19.942;2023-05-20T09:18:55;101638.13;;;18.90;68.53
60920;BME280;59039;52.108;19.942;2023-05-20T09:24:05;101639.16;;;19.03;70.05
60920;BME280;59039;52.108;19.942;2023-05-20T09:26:30;101637.11;;;19.07;70.75
60920;BME280;59039;52.108;19.942;2023-05-20T09:28:56;101635.50;;;19.10;70.50
60920;BME280;59039;52.108;19.942;2023-05-20T09:31:25;101635.29;;;19.16;71.48
60920;BME280;59039;52.108;19.942;2023-05-20T09:33:51;101632.70;;;19.23;70.56
60920;BME280;59039;52.108;19.942;2023-05-20T09:36:37;101627.53;;;19.29;70.07
60920;BME280;59039;52.108;19.942;2023-05-20T09:39:14;101629.11;;;19.38;70.52
60920;BME280;59039;52.108;19.942;2023-05-20T09:42:01;101631.44;;;19.45;70.43
60920;BME280;59039;52.108;19.942;2023-05-20T09:44:38;101628.11;;;19.50;70.47
60920;BME280;59039;52.108;19.942;2023-05-20T09:47:05;101624.11;;;19.53;68.67
60920;BME280;59039;52.108;19.942;2023-05-20T09:52:11;101619.65;;;19.59;69.30
60920;BME280;59039;52.108;19.942;2023-05-20T09:54:36;101614.55;;;19.62;69.31
60920;BME280;59039;52.108;19.942;2023-05-20T09:57:04;101610.63;;;19.66;70.22
60920;BME280;59039;52.108;19.942;2023-05-20T09:59:31;101611.95;;;19.71;71.06
60920;BME280;59039;52.108;19.942;2023-05-20T10:01:56;101613.33;;;19.78;71.62
60920;BME280;59039;52.108;19.942;2023-05-20T10:04:29;101613.44;;;19.82;69.13
60920;BME280;59039;52.108;19.942;2023-05-20T10:07:32;101613.44;;;19.87;70.26
60920;BME280;59039;52.108;19.942;2023-05-20T10:12:38;101617.70;;;19.98;69.52
60920;BME280;59039;52.108;19.942;2023-05-20T10:15:42;101617.98;;;20.02;69.20
60920;BME280;59039;52.108;19.942;2023-05-20T10:18:29;101617.70;;;20.08;70.37
60920;BME280;59039;52.108;19.942;2023-05-20T10:20:58;101615.70;;;20.06;65.90
60920;BME280;59039;52.108;19.942;2023-05-20T10:23:27;101616.73;;;20.10;68.38
60920;BME280;59039;52.108;19.942;2023-05-20T10:25:54;101619.24;;;20.13;69.70
60920;BME280;59039;52.108;19.942;2023-05-20T10:28:42;101618.20;;;20.17;69.20
60920;BME280;59039;52.108;19.942;2023-05-20T10:31:43;101612.45;;;20.20;69.87
60920;BME280;59039;52.108;19.942;2023-05-20T10:34:19;101610.00;;;20.22;68.19
60920;BME280;59039;52.108;19.942;2023-05-20T10:37:04;101601.11;;;20.24;68.92
60920;BME280;59039;52.108;19.942;2023-05-20T10:39:31;101603.70;;;20.30;68.54
60920;BME280;59039;52.108;19.942;2023-05-20T10:42:12;101600.13;;;20.32;67.37
60920;BME280;59039;52.108;19.942;2023-05-20T10:44:48;101592.03;;;20.34;68.56
60920;BME280;59039;52.108;19.942;2023-05-20T10:47:32;101587.57;;;20.40;69.20
60920;BME280;59039;52.108;19.942;2023-05-20T10:49:58;101586.33;;;20.45;67.60
60920;BME280;59039;52.108;19.942;2023-05-20T10:52:43;101579.99;;;20.48;68.73
60920;BME280;59039;52.108;19.942;2023-05-20T10:55:18;101576.86;;;20.51;67.53
60920;BME280;59039;52.108;19.942;2023-05-20T10:57:44;101569.24;;;20.55;68.69
60920;BME280;59039;52.108;19.942;2023-05-20T11:00:18;101571.28;;;20.58;69.01
60920;BME280;59039;52.108;19.942;2023-05-20T11:02:45;101566.71;;;20.62;68.87
60920;BME280;59039;52.108;19.942;2023-05-20T11:05:12;101559.20;;;20.67;67.81
60920;BME280;59039;52.108;19.942;2023-05-20T11:07:45;101555.63;;;20.70;67.50
60920;BME280;59039;52.108;19.942;2023-05-20T11:10:10;101555.69;;;20.74;66.98
60920;BME280;59039;52.108;19.942;2023-05-20T11:12:36;101543.25;;;20.78;67.97
60920;BME280;59039;52.108;19.942;2023-05-20T11:15:02;101544.93;;;20.82;68.35
60920;BME280;59039;52.108;19.942;2023-05-20T11:17:27;101544.52;;;20.87;68.35
60920;BME280;59039;52.108;19.942;2023-05-20T11:20:02;101544.77;;;20.92;68.69
60920;BME280;59039;52.108;19.942;2023-05-20T11:22:36;101540.44;;;20.96;67.30
60920;BME280;59039;52.108;19.942;2023-05-20T11:25:04;101539.09;;;21.00;68.06
60920;BME280;59039;52.108;19.942;2023-05-20T11:27:30;101537.95;;;21.05;68.41
60920;BME280;59039;52.108;19.942;2023-05-20T11:30:03;101538.09;;;21.10;68.82
60920;BME280;59039;52.108;19.942;2023-05-20T11:32:31;101532.10;;;21.12;66.33
60920;BME280;59039;52.108;19.942;2023-05-20T11:34:59;101531.54;;;21.15;67.64
60920;BME280;59039;52.108;19.942;2023-05-20T11:37:25;101531.41;;;21.19;68.21
60920;BME280;59039;52.108;19.942;2023-05-20T11:40:10;101530.27;;;21.23;68.80
60920;BME280;59039;52.108;19.942;2023-05-20T11:42:44;101532.69;;;21.29;67.35
60920;BME280;59039;52.108;19.942;2023-05-20T11:45:15;101532.41;;;21.32;68.54
60920;BME280;59039;52.108;19.942;2023-05-20T11:48:01;101529.02;;;21.36;68.24
60920;BME280;59039;52.108;19.942;2023-05-20T11:50:28;101528.27;;;21.40;67.65
60920;BME280;59039;52.108;19.942;2023-05-20T11:52:57;101529.52;;;21.46;67.37
60920;BME280;59039;52.108;19.942;2023-05-20T11:55:23;101532.66;;;21.52;67.48
60920;BME280;59039;52.108;19.942;2023-05-20T11:57:49;101530.02;;;21.55;66.57
60920;BME280;59039;52.108;19.942;2023-05-20T12:00:15;101531.28;;;21.54;66.74
60920;BME280;59039;52.108;19.942;2023-05-20T12:02:40;101523.55;;;21.55;66.18
60920;BME280;59039;52.108;19.942;2023-05-20T12:05:27;101526.16;;;21.58;67.99
60920;BME280;59039;52.108;19.942;2023-05-20T12:07:51;101527.39;;;21.63;67.80
60920;BME280;59039;52.108;19.942;2023-05-20T12:10:17;101524.30;;;21.65;66.15
60920;BME280;59039;52.108;19.942;2023-05-20T12:12:43;101521.64;;;21.67;67.50
60920;BME280;59039;52.108;19.942;2023-05-20T12:15:09;101520.21;;;21.70;67.38
60920;BME280;59039;52.108;19.942;2023-05-20T12:17:50;101515.55;;;21.73;67.93
60920;BME280;59039;52.108;19.942;2023-05-20T12:20:18;101517.79;;;21.75;67.25
60920;BME280;59039;52.108;19.942;2023-05-20T12:22:44;101509.98;;;21.77;67.17
60920;BME280;59039;52.108;19.942;2023-05-20T12:25:14;101504.24;;;21.80;67.05
60920;BME280;59039;52.108;19.942;2023-05-20T12:27:41;101507.41;;;21.84;66.43
60920;BME280;59039;52.108;19.942;2023-05-20T12:30:07;101510.41;;;21.85;65.36
60920;BME280;59039;52.108;19.942;2023-05-20T12:32:33;101504.43;;;21.90;67.01
60920;BME280;59039;52.108;19.942;2023-05-20T12:34:59;101497.55;;;21.93;67.91
60920;BME280;59039;52.108;19.942;2023-05-20T12:37:24;101501.23;;;21.96;66.14
60920;BME280;59039;52.108;19.942;2023-05-20T12:39:49;101502.85;;;21.99;66.36
60920;BME280;59039;52.108;19.942;2023-05-20T12:42:15;101496.52;;;21.99;65.83
60920;BME280;59039;52.108;19.942;2023-05-20T12:44:40;101494.37;;;22.02;66.38
60920;BME280;59039;52.108;19.942;2023-05-20T12:47:05;101489.17;;;22.05;66.28
60920;BME280;59039;52.108;19.942;2023-05-20T12:49:30;101485.45;;;22.08;65.26
60920;BME280;59039;52.108;19.942;2023-05-20T12:51:56;101477.33;;;22.10;66.25
60920;BME280;59039;52.108;19.942;2023-05-20T12:54:24;101474.30;;;22.16;67.12
60920;BME280;59039;52.108;19.942;2023-05-20T12:56:49;101476.89;;;22.21;67.67
60920;BME280;59039;52.108;19.942;2023-05-20T12:59:14;101475.00;;;22.25;67.11
60920;BME280;59039;52.108;19.942;2023-05-20T13:01:40;101471.95;;;22.29;67.14
60920;BME280;59039;52.108;19.942;2023-05-20T13:04:05;101466.42;;;22.31;67.21
60920;BME280;59039;52.108;19.942;2023-05-20T13:06:31;101462.17;;;22.34;66.81
60920;BME280;59039;52.108;19.942;2023-05-20T13:08:56;101457.88;;;22.37;66.03
60920;BME280;59039;52.108;19.942;2023-05-20T13:11:22;101450.48;;;22.42;66.07
60920;BME280;59039;52.108;19.942;2023-05-20T13:13:47;101445.84;;;22.44;66.19
60920;BME280;59039;52.108;19.942;2023-05-20T13:16:12;101443.30;;;22.48;64.47
60920;BME280;59039;52.108;19.942;2023-05-20T13:18:37;101443.03;;;22.51;65.53
60920;BME280;59039;52.108;19.942;2023-05-20T13:21:03;101444.88;;;22.54;64.77
60920;BME280;59039;52.108;19.942;2023-05-20T13:23:28;101443.23;;;22.57;65.33
60920;BME280;59039;52.108;19.942;2023-05-20T13:25:54;101442.55;;;22.59;63.66
60920;BME280;59039;52.108;19.942;2023-05-20T13:28:19;101437.27;;;22.61;61.53
60920;BME280;59039;52.108;19.942;2023-05-20T13:30:44;101435.49;;;22.65;64.92
60920;BME280;59039;52.108;19.942;2023-05-20T13:33:10;101433.38;;;22.68;63.45
60920;BME280;59039;52.108;19.942;2023-05-20T13:35:35;101428.73;;;22.70;64.49
60920;BME280;59039;52.108;19.942;2023-05-20T13:38:01;101424.42;;;22.71;63.86
60920;BME280;59039;52.108;19.942;2023-05-20T13:40:26;101425.58;;;22.74;63.50
60920;BME280;59039;52.108;19.942;2023-05-20T13:42:52;101424.52;;;22.76;63.49
60920;BME280;59039;52.108;19.942;2023-05-20T13:45:18;101427.08;;;22.79;63.45
60920;BME280;59039;52.108;19.942;2023-05-20T13:47:43;101421.83;;;22.81;61.78
60920;BME280;59039;52.108;19.942;2023-05-20T13:50:09;101414.77;;;22.84;61.64
60920;BME280;59039;52.108;19.942;2023-05-20T13:52:34;101407.65;;;22.85;58.09
60920;BME280;59039;52.108;19.942;2023-05-20T13:55:00;101412.67;;;22.90;62.54
60920;BME280;59039;52.108;19.942;2023-05-20T13:57:25;101409.67;;;22.93;60.60
60920;BME280;59039;52.108;19.942;2023-05-20T13:59:51;101411.56;;;22.98;60.74
60920;BME280;59039;52.108;19.942;2023-05-20T14:02:16;101414.84;;;23.01;60.95
60920;BME280;59039;52.108;19.942;2023-05-20T14:04:41;101409.34;;;23.03;59.77
60920;BME280;59039;52.108;19.942;2023-05-20T14:07:07;101404.90;;;23.06;60.06